Latest Weather Observations for Thargomindah

IDQ60801

Issued at 8:02 pm EST Tuesday 19 June 2018 (issued every 10 minutes, with the page automatically refreshed every 10 minutes)

About weather observations | Map of weather stations | Latest weather observations for QLD | Other Formats
Station Details ID: 045025 Name: THARGOMINDAH AIRPORT Lat: -27.99 Lon: 143.81 Height: 130.89 m
Data from the previous 72 hours. | See also: Recent months at Thargomindah
Date/Time
EST
Temp
°C
App
Temp
°C
Dew
Point
°C
Rel
Hum
%
Delta-T
°C
Wind Press
QNH
hPa
Press
MSL
hPa
Rain since
9am
mm
Dir  Spd
km/h
Gust
km/h
Spd
kts
Gust
kts
19/08:00pm 10.2 6.7 -1.5 44 4.6 SSE 7 11 4 6 1026.1 - 0.0
19/07:30pm 11.6 7.7 -1.2 41 5.1 SSE 9 11 5 6 1026.2 - 0.0
19/07:00pm 12.2 8.2 -2.0 37 5.6 SSE 9 11 5 6 1026.2 - 0.0
19/06:30pm 13.3 9.4 -1.8 35 6.1 SSE 9 9 5 5 1025.9 - 0.0
19/06:00pm 14.5 10.3 -1.2 34 6.4 SE 11 13 6 7 1025.3 1025.1 0.0
19/05:30pm 15.7 11.1 -0.9 32 7.0 SSE 13 17 7 9 1025.0 - 0.0
19/05:00pm 16.2 12.0 -0.9 31 7.2 SE 11 15 6 8 1024.7 - 0.0
19/04:30pm 16.6 12.4 -0.6 31 7.3 S 11 17 6 9 1024.8 - 0.0
19/04:00pm 16.7 12.1 -0.9 30 7.5 SSE 13 17 7 9 1024.5 - 0.0
19/03:30pm 16.6 12.4 -1.0 30 7.4 SSE 11 17 6 9 1024.3 - 0.0
19/03:00pm 16.5 11.9 -0.7 31 7.3 SE 13 20 7 11 1024.3 1024.1 0.0
19/02:30pm 16.3 11.7 -0.8 31 7.2 S 13 24 7 13 1024.4 - 0.0
19/02:00pm 15.8 11.2 -1.3 31 7.1 SSE 13 17 7 9 1024.8 - 0.0
19/01:30pm 15.2 11.0 -0.9 33 6.7 SSE 11 17 6 9 1025.5 - 0.0
19/01:00pm 14.9 10.8 0.0 36 6.3 S 11 19 6 10 1026.1 - 0.0
19/12:30pm 14.4 9.9 -0.1 37 6.1 S 13 22 7 12 1026.7 - 0.0
19/12:00pm 14.1 9.8 1.1 41 5.6 SE 13 20 7 11 1027.3 1027.2 0.0
19/11:30am 13.3 9.1 1.6 45 5.1 ESE 13 20 7 11 1027.8 - 0.0
19/11:00am 12.8 8.3 2.1 48 4.7 ESE 15 20 8 11 1028.3 - 0.0
19/10:30am 12.3 7.8 2.2 50 4.4 ESE 15 19 8 10 1028.4 - 0.0
19/10:00am 10.8 6.6 1.4 52 4.0 ESE 13 19 7 10 1028.5 - 0.0
19/09:30am 9.5 5.6 1.2 56 3.4 SSE 11 15 6 8 1028.6 - 0.0
19/09:00am 7.4 4.2 0.6 62 2.7 S 7 11 4 6 1028.3 1028.2 0.0
19/08:30am 5.0 1.5 -1.0 65 2.2 S 7 9 4 5 1028.1 - 0.0
19/08:00am 3.2 0.2 -2.1 68 1.9 SW 4 6 2 3 1027.8 - 0.0
19/07:30am 1.8 -1.9 -2.7 72 1.5 WSW 7 9 4 5 1027.9 - 0.0
19/07:00am 1.9 -1.7 -2.2 74 1.4 SSW 7 7 4 4 1027.6 - 0.0
19/06:30am 2.6 -0.9 -2.5 69 1.8 SE 6 7 3 4 1027.1 - 0.0
19/06:00am 3.0 -0.6 -2.3 68 1.9 SE 7 9 4 5 1026.6 1026.5 0.0
19/05:30am 3.9 0.0 -1.7 67 2.0 SSE 9 13 5 7 1026.5 - 0.0
19/05:00am 4.0 -0.3 -1.8 66 2.1 SSE 11 13 6 7 1026.7 - 0.0
19/04:30am 4.6 0.3 -1.4 65 2.2 SSE 11 15 6 8 1026.8 - 0.0
19/04:00am 4.5 0.6 -1.5 65 2.2 SSE 9 11 5 6 1027.0 - 0.0
19/03:30am 4.1 0.4 -2.5 62 2.3 S 7 9 4 5 1027.2 - 0.0
19/03:00am 4.6 1.0 -2.0 62 2.4 SSW 7 9 4 5 1027.4 1027.3 0.0
19/02:30am 4.3 -0.1 -2.5 61 2.4 SSW 11 11 6 6 1027.3 - 0.0
19/02:00am 4.8 0.8 -2.1 61 2.5 WSW 9 11 5 6 1027.3 - 0.0
19/01:30am 4.6 0.6 -2.3 61 2.5 W 9 9 5 5 1027.0 - 0.0
19/01:00am 5.2 0.8 -2.1 59 2.7 WNW 11 13 6 7 1026.9 - 0.0
19/12:30am 5.7 1.4 -1.7 59 2.7 WSW 11 11 6 6 1026.6 - 0.0
19/12:00am 5.6 2.2 -1.8 59 2.7 WSW 6 9 3 5 1026.5 1026.4 0.0
 
Date/Time
EST
Temp
°C
App
Temp
°C
Dew
Point
°C
Rel
Hum
%
Delta-T
°C
Wind Press
QNH
hPa
Press
MSL
hPa
Rain since
9am
mm
Dir  Spd
km/h
Gust
km/h
Spd
kts
Gust
kts
18/11:30pm 5.4 2.7 -2.7 56 2.9 S 2 6 1 3 1026.4 - 0.0
18/11:00pm 6.3 3.0 -1.6 57 3.0 SSW 6 7 3 4 1026.5 - 0.0
18/10:30pm 7.3 3.7 -2.2 51 3.5 SSW 7 9 4 5 1026.8 - 0.0
18/10:00pm 8.6 4.3 -1.5 49 3.9 SSW 11 11 6 6 1027.2 - 0.0
18/09:30pm 9.3 4.7 -1.1 48 4.1 SSW 13 15 7 8 1027.1 - 0.0
18/09:00pm 9.9 5.3 -0.9 47 4.2 S 13 15 7 8 1027.1 1027.0 0.0
18/08:30pm 10.2 5.6 -0.9 46 4.4 S 13 15 7 8 1027.0 - 0.0
18/08:00pm 10.4 5.8 -1.0 45 4.5 SSW 13 13 7 7 1026.9 - 0.0
18/07:30pm 11.1 6.9 -1.0 43 4.8 SSW 11 13 6 7 1026.6 - 0.0
18/07:00pm 11.5 7.3 -0.9 42 5.0 SW 11 11 6 6 1026.4 - 0.0
18/06:30pm 12.6 8.1 -0.6 40 5.4 SW 13 15 7 8 1026.2 - 0.0
18/06:00pm 13.4 8.4 -1.0 37 5.9 SW 15 19 8 10 1026.1 1026.0 0.0
18/05:30pm 14.2 9.2 -1.4 34 6.4 SSW 15 20 8 11 1025.8 - 0.0
18/05:00pm 14.8 8.9 -0.9 34 6.5 S 20 28 11 15 1025.5 - 0.0
18/04:30pm 15.2 9.5 -0.9 33 6.7 SSW 19 28 10 15 1025.5 - 0.0
18/04:00pm 15.3 9.6 -0.9 33 6.8 SSW 19 30 10 16 1025.4 - 0.0
18/03:30pm 15.4 9.6 -0.4 34 6.7 SW 20 30 11 16 1025.4 - 0.0
18/03:00pm 15.3 9.7 -0.1 35 6.5 SSW 19 28 10 15 1025.6 1025.5 0.0
18/02:30pm 15.5 10.4 0.9 37 6.4 SW 17 28 9 15 1025.6 - 0.0
18/02:00pm 15.4 10.4 1.2 38 6.2 SW 17 26 9 14 1025.6 - 0.0
18/01:30pm 14.7 9.1 0.2 37 6.2 S 19 28 10 15 1026.1 - 0.0
18/01:00pm 14.4 8.3 0.6 39 5.9 SW 22 32 12 17 1026.5 - 0.0
18/12:30pm 14.9 9.3 1.4 40 5.9 SSW 20 32 11 17 1026.7 - 0.0
18/12:00pm 13.7 8.1 1.4 43 5.3 SSW 20 28 11 15 1027.4 1027.3 0.0
18/11:30am 13.1 7.7 1.5 45 5.0 SSW 19 26 10 14 1027.9 - 0.0
18/11:00am 12.2 7.7 2.1 50 4.4 S 15 20 8 11 1028.2 - 0.0
18/10:30am 11.4 7.3 2.2 53 4.0 S 13 19 7 10 1028.3 - 0.0
18/10:00am 10.6 6.1 2.2 56 3.6 S 15 20 8 11 1028.3 - 0.0
18/09:30am 9.5 5.3 1.9 59 3.2 SSW 13 20 7 11 1028.3 - 0.0
18/09:00am 7.6 4.0 0.6 61 2.8 SW 9 13 5 7 1028.2 1028.1 0.0
18/08:30am 5.5 2.0 -1.2 62 2.5 W 7 9 4 5 1027.9 - 0.0
18/08:00am 4.2 0.7 -1.2 68 2.0 W 7 9 4 5 1027.6 - 0.0
18/07:30am 2.2 -1.1 -1.4 77 1.3 WSW 6 6 3 3 1027.2 - 0.0
18/07:00am 2.4 -1.1 -1.4 76 1.4 W 7 7 4 4 1027.0 - 0.0
18/06:30am 3.0 -0.9 -1.2 74 1.5 W 9 11 5 6 1026.8 - 0.0
18/06:00am 3.1 -0.3 -0.9 75 1.5 W 7 9 4 5 1026.6 1026.5 0.0
18/05:30am 3.0 -0.5 -1.5 72 1.6 WNW 7 9 4 5 1026.4 - 0.0
18/05:00am 3.5 0.1 -0.7 74 1.6 W 7 7 4 4 1026.4 - 0.0
18/04:30am 3.8 0.3 -1.0 71 1.8 W 7 7 4 4 1026.4 - 0.0
18/04:00am 4.1 0.7 -0.9 70 1.9 WNW 7 7 4 4 1026.4 - 0.0
18/03:30am 4.4 1.0 -2.2 62 2.4 W 6 7 3 4 1026.4 - 0.0
18/03:00am 4.6 1.1 -2.7 59 2.6 W 6 7 3 4 1026.4 1026.3 0.0
18/02:30am 5.8 2.0 -0.5 64 2.4 WSW 9 9 5 5 1026.3 - 0.0
18/02:00am 6.0 2.3 -0.1 65 2.4 W 9 9 5 5 1026.4 - 0.0
18/01:30am 6.5 2.7 -0.5 61 2.7 WSW 9 9 5 5 1026.5 - 0.0
18/01:00am 7.3 3.6 0.1 60 2.8 WSW 9 11 5 6 1026.4 - 0.0
18/12:30am 7.7 3.7 0.2 59 3.0 SW 11 11 6 6 1026.4 - 0.0
18/12:00am 8.2 4.2 0.2 57 3.2 SW 11 13 6 7 1026.5 1026.4 0.0
 
Date/Time
EST
Temp
°C
App
Temp
°C
Dew
Point
°C
Rel
Hum
%
Delta-T
°C
Wind Press
QNH
hPa
Press
MSL
hPa
Rain since
9am
mm
Dir  Spd
km/h
Gust
km/h
Spd
kts
Gust
kts
17/11:30pm 8.3 4.2 0.1 56 3.3 SW 11 13 6 7 1026.5 - 0.0
17/11:00pm 8.7 4.6 -0.1 54 3.5 SW 11 13 6 7 1026.5 - 0.0
17/10:30pm 9.3 4.9 0.2 53 3.7 SW 13 15 7 8 1026.6 - 0.0
17/10:00pm 9.6 5.2 0.2 52 3.8 SW 13 15 7 8 1026.4 - 0.0
17/09:30pm 9.5 5.4 -0.1 51 3.9 SW 11 13 6 7 1026.5 - 0.0
17/09:00pm 9.9 6.2 0.0 50 4.0 WSW 9 11 5 6 1026.4 1026.3 0.0
17/08:30pm 10.4 6.3 -0.4 47 4.3 SW 11 13 6 7 1026.3 - 0.0
17/08:00pm 11.2 7.0 -0.6 44 4.8 SSW 11 13 6 7 1026.1 - 0.0
17/07:30pm 11.8 7.2 -0.7 42 5.1 SSW 13 17 7 9 1026.0 - 0.0
17/07:00pm 12.2 7.7 -0.6 41 5.2 SW 13 17 7 9 1025.8 - 0.0
17/06:30pm 12.8 7.8 -1.1 38 5.6 SW 15 19 8 10 1025.5 - 0.0
17/06:00pm 13.2 7.7 -1.9 35 6.0 SW 17 22 9 12 1025.1 1024.9 0.0
17/05:30pm 14.0 8.1 -2.0 33 6.4 SW 19 24 10 13 1024.6 - 0.0
17/05:00pm 14.7 8.5 -3.1 29 7.1 SW 20 30 11 16 1024.3 - 0.0
17/04:30pm 15.0 8.1 -2.4 30 7.0 SSW 24 30 13 16 1024.2 - 0.0
17/04:00pm 15.4 9.3 -2.5 29 7.2 SSW 20 28 11 15 1024.4 - 0.0
17/03:30pm 15.0 8.1 -2.9 29 7.1 SSW 24 30 13 16 1024.3 - 0.0
17/03:00pm 15.3 9.1 -3.1 28 7.3 SW 20 32 11 17 1024.1 1023.9 0.0
17/02:30pm 14.8 8.2 -3.0 29 7.1 S 22 32 12 17 1024.2 - 0.0
17/02:00pm 14.4 7.5 -2.9 30 6.9 SSW 24 35 13 19 1024.6 - 0.0
17/01:30pm 14.2 6.9 -2.7 31 6.7 S 26 33 14 18 1025.0 - 0.0
17/01:00pm 14.4 7.6 -2.1 32 6.7 SSW 24 33 13 18 1025.4 - 0.0
17/12:30pm 13.7 6.9 -1.9 34 6.3 SSW 24 35 13 19 1026.1 - 0.0
17/12:00pm 13.1 6.7 -1.6 36 5.9 SW 22 30 12 16 1026.6 1026.5 0.0
17/11:30am 12.6 5.9 -1.3 38 5.6 SSW 24 32 13 17 1027.0 - 0.0
17/11:00am 11.9 5.2 -1.3 40 5.3 SSW 24 30 13 16 1027.3 - 0.0
17/10:30am 11.3 3.8 -1.5 41 5.1 S 28 37 15 20 1027.3 - 0.0
17/10:00am 11.1 2.7 -2.3 39 5.2 S 32 37 17 20 1027.2 - 0.0
17/09:30am 10.6 2.6 0.3 49 4.2 SSW 32 39 17 21 1026.7 - 0.0
17/09:00am 9.6 4.5 1.0 55 3.5 SSW 17 22 9 12 1026.5 1026.4 0.0
17/08:30am 8.0 3.5 -0.5 55 3.3 SW 13 17 7 9 1026.2 - 0.0
17/08:00am 6.5 2.3 -1.2 58 2.9 W 11 13 6 7 1025.8 - 0.0
17/07:30am 4.7 0.8 -1.5 64 2.3 W 9 11 5 6 1025.5 - 0.0
17/07:00am 4.6 1.0 -2.0 62 2.4 W 7 9 4 5 1025.3 - 0.0
17/06:30am 5.1 1.2 -1.8 61 2.5 W 9 9 5 5 1025.0 - 0.0
17/06:00am 5.3 1.4 -1.8 60 2.6 W 9 9 5 5 1024.8 1024.6 0.0
17/05:30am 6.0 2.1 -1.6 58 2.8 W 9 11 5 6 1024.8 - 0.0
17/05:00am 6.2 1.9 -1.7 57 2.9 W 11 11 6 6 1024.8 - 0.0
17/04:30am 6.4 2.9 -1.7 56 3.0 W 7 9 4 5 1024.7 - 0.0
17/04:00am 6.8 2.9 -1.6 55 3.2 W 9 11 5 6 1024.6 - 0.0
17/03:30am 7.1 2.8 -1.6 54 3.3 W 11 13 6 7 1024.3 - 0.0
17/03:00am 7.5 3.3 -1.2 54 3.3 WSW 11 13 6 7 1024.2 1024.0 0.0
17/02:30am 7.7 3.4 -1.3 53 3.4 WSW 11 13 6 7 1024.3 - 0.0
17/02:00am 7.7 3.4 -1.5 52 3.5 W 11 13 6 7 1024.6 - 0.0
17/01:30am 7.8 3.5 -1.4 52 3.5 W 11 13 6 7 1024.6 - 0.0
17/01:00am 7.8 4.3 -1.4 52 3.5 W 7 9 4 5 1024.5 - 0.0
17/12:30am 8.8 4.6 -1.0 50 3.8 WSW 11 11 6 6 1024.5 - 0.0
17/12:00am 9.3 5.0 -1.4 47 4.1 SW 11 13 6 7 1024.6 1024.4 0.0
 
Date/Time
EST
Temp
°C
App
Temp
°C
Dew
Point
°C
Rel
Hum
%
Delta-T
°C
Wind Press
QNH
hPa
Press
MSL
hPa
Rain since
9am
mm
Dir  Spd
km/h
Gust
km/h
Spd
kts
Gust
kts
16/11:30pm 9.7 5.5 -1.1 47 4.2 WSW 11 13 6 7 1024.6 - 0.0
16/11:00pm 10.6 6.0 -1.1 44 4.6 WSW 13 15 7 8 1024.5 - 0.0
16/10:30pm 10.9 6.3 -0.9 44 4.7 WSW 13 15 7 8 1024.3 - 0.0
16/10:00pm 11.2 7.4 -0.9 43 4.9 WSW 9 13 5 7 1024.1 - 0.0
16/09:30pm 11.3 7.5 -0.8 43 4.9 W 9 11 5 6 1023.9 - 0.0
16/09:00pm 11.3 7.8 -1.1 42 4.9 W 7 9 4 5 1023.9 1023.7 0.0
16/08:30pm 12.3 8.1 -0.9 40 5.4 WSW 11 11 6 6 1023.6 - 0.0

Other Formats:

Comma delimited format used in spreadsheet applications
http://www.bom.gov.au/fwo/IDQ60801/IDQ60801.95492.axf

JavaScript Object Notation format (JSON) in row-major order
http://www.bom.gov.au/fwo/IDQ60801/IDQ60801.95492.json